KDLS

Columbia Gorge Regional / The Dalles Municipal Airport

The Dalles, Oregon, USA
KDLS 171120Z 1712/1812 32014KT P6SM FEW250 FM171800 32015G25KT P6SM FEW250 FM180600 32014KT P6SM SKC
Issued Valid From Valid To
Aug-17 @ 11:20 UTC
(4 hours ago)
Aug-17 @ 12:00 UTC
(3 hours ago)
Aug-18 @ 12:00 UTC
(in 21 hours)
Aug-17 @ 12:00 to Aug-17 @ 18:00
KDLS 171120Z 1712/1812 32014KT P6SM FEW250
Wind Visibility Clouds
320° at 14 knots Greater than 6 miles
  • Few at 25,000' AGL
From Aug-17 @ 18:00 to Aug-18 @ 06:00
FM171800 32015G25KT P6SM FEW250
Wind Visibility Clouds
320° at 15 knots
 Gusting to 25 knots
Greater than 6 miles
  • Few at 25,000' AGL
From Aug-18 @ 06:00 to Aug-18 @ 12:00
FM180600 32014KT P6SM SKC
Wind Visibility Clouds
320° at 14 knots Greater than 6 miles
  • Clear skies
KDLS 171120Z 1712/1812 32014KT P6SM FEW250 FM171800 32015G25KT P6SM FEW250 FM180600 32014KT P6SM SKC
Issued Aug-17 @ 11:20 UTC
(4 hours ago)
Valid From Aug-17 @ 12:00 UTC
(3 hours ago)
Valid To Aug-18 @ 12:00 UTC
(in 21 hours)
Aug-17 @ 12:00 - Aug-17 @ 18:00
Wind Visibility
320° at 14 knots Greater than 6 miles
Clouds
  • Few at 25,000' AGL
From Aug-17 @ 18:00 - Aug-18 @ 06:00
Wind Visibility
320° at 15 knots
 Gusting to 25 knots
Greater than 6 miles
Clouds
  • Few at 25,000' AGL
From Aug-18 @ 06:00 - Aug-18 @ 12:00
Wind Visibility
320° at 14 knots Greater than 6 miles
Clouds
  • Clear skies